Latest Weather Observations for Strathalbyn

IDS60801

Issued at 2:31 pm CST Sunday 30 April 2017 (issued every 30 minutes, with the page automatically refreshed every 10 minutes)

About weather observations | Map of weather stations | Latest weather observations for SA | Other Formats
Station Details ID: 024580 Name: STRATHALBYN RACECOURSE Lat: -35.28 Lon: 138.89 Height: 58.0 m
Data from the previous 72 hours. | See also: Recent months at Strathalbyn
Date/Time
CST
Temp
°C
App
Temp
°C
Dew
Point
°C
Rel
Hum
%
Delta-T
°C
Wind Press
QNH
hPa
Press
MSL
hPa
Rain since
9am
mm
Dir  Spd
km/h
Gust
km/h
Spd
kts
Gust
kts
30/02:30pm 17.6 13.2 7.4 51 5.1 N 20 32 11 17 1018.8 1018.8 0.0
30/02:00pm 18.1 14.7 7.5 50 5.4 N 15 20 8 11 1018.9 1018.9 0.0
30/01:30pm 18.6 16.1 8.3 51 5.3 NNE 11 17 6 9 1019.0 1019.0 0.0
30/01:00pm 18.5 16.5 8.7 53 5.1 N 9 13 5 7 1019.3 1019.3 0.0
30/12:30pm 17.9 14.6 7.9 52 5.1 NE 15 22 8 12 1020.0 1019.9 0.0
30/12:00pm 17.9 15.5 8.5 54 4.8 NNE 11 17 6 9 1020.4 1020.3 0.0
30/11:30am 17.6 15.2 8.5 55 4.7 NNE 11 17 6 9 1021.0 1020.9 0.0
30/11:00am 17.6 15.7 9.0 57 4.5 N 9 11 5 6 1021.5 1021.4 0.0
30/10:30am 17.4 15.6 9.3 59 4.2 N 9 13 5 7 1021.7 1021.6 0.0
30/10:00am 16.9 15.0 9.1 60 4.0 N 9 11 5 6 1022.1 1022.0 0.0
30/09:30am 16.6 15.1 9.3 62 3.8 NNW 7 9 4 5 1022.3 1022.2 0.0
30/09:00am 16.1 16.0 9.3 64 3.5 CALM 0 6 0 3 1022.6 1022.5 0.0
30/08:30am 15.7 14.7 10.2 70 2.9 N 6 7 3 4 1022.8 1022.7 0.0
30/08:00am 15.2 14.0 10.4 73 2.5 N 7 9 4 5 1022.7 1022.6 0.0
30/07:30am 15.0 13.8 10.4 74 2.4 NNW 7 7 4 4 1022.6 1022.5 0.0
30/07:00am 14.6 13.6 10.4 76 2.2 NNW 6 7 3 4 1022.6 1022.5 0.0
30/06:30am 14.5 14.9 11.3 81 1.7 CALM 0 0 0 0 1022.5 1022.4 0.0
30/06:00am 14.3 14.7 11.3 82 1.6 CALM 0 0 0 0 1022.5 1022.4 0.0
30/05:30am 14.4 14.9 11.6 83 1.5 CALM 0 6 0 3 1022.5 1022.4 0.0
30/05:00am 14.4 14.9 11.6 83 1.5 CALM 0 2 0 1 1022.5 1022.4 0.0
30/04:30am 14.7 14.9 11.7 82 1.6 SW 2 6 1 3 1022.5 1022.4 0.0
30/04:00am 14.4 14.2 11.7 84 1.5 NNE 4 7 2 4 1022.4 1022.3 0.0
30/03:30am 14.4 14.9 11.7 84 1.4 CALM 0 0 0 0 1022.3 1022.2 0.0
30/03:00am 14.5 14.7 11.7 83 1.5 NW 2 7 1 4 1022.5 1022.4 0.0
30/02:30am 14.5 14.6 11.5 82 1.6 WNW 2 6 1 3 1022.7 1022.6 0.0
30/02:00am 14.6 15.0 11.2 80 1.8 CALM 0 0 0 0 1023.0 1022.9 0.0
30/01:30am 14.7 14.4 11.3 80 1.8 SSE 4 7 2 4 1023.3 1023.2 0.0
30/01:00am 15.1 15.4 10.9 76 2.2 CALM 0 6 0 3 1023.4 1023.3 0.0
30/12:30am 14.8 13.5 11.4 80 1.8 N 9 11 5 6 1023.5 1023.4 0.0
30/12:00am 14.9 14.3 11.7 81 1.7 N 6 7 3 4 1023.8 1023.7 0.0
 
Date/Time
CST
Temp
°C
App
Temp
°C
Dew
Point
°C
Rel
Hum
%
Delta-T
°C
Wind Press
QNH
hPa
Press
MSL
hPa
Rain since
9am
mm
Dir  Spd
km/h
Gust
km/h
Spd
kts
Gust
kts
29/11:30pm 14.9 15.3 11.3 79 1.9 CALM 0 0 0 0 1023.9 1023.8 0.0
29/11:00pm 15.0 15.6 11.8 81 1.7 CALM 0 0 0 0 1024.1 1024.0 0.0
29/10:30pm 15.1 15.5 11.3 78 2.0 CALM 0 0 0 0 1024.4 1024.3 0.0
29/10:00pm 15.3 14.7 11.7 79 1.9 NNE 6 9 3 5 1024.3 1024.2 0.0
29/09:30pm 15.4 15.6 11.8 79 1.9 N 2 6 1 3 1024.5 1024.4 0.0
29/09:00pm 15.5 16.1 11.9 79 1.9 CALM 0 0 0 0 1024.5 1024.4 0.0
29/08:30pm 15.7 16.2 11.7 77 2.2 CALM 0 0 0 0 1024.5 1024.4 0.0
29/08:00pm 15.6 15.9 10.8 73 2.6 CALM 0 0 0 0 1024.6 1024.5 0.0
29/07:30pm 15.8 15.8 11.2 74 2.5 NNE 2 6 1 3 1024.6 1024.5 0.0
29/07:00pm 15.9 15.1 10.9 72 2.7 WNW 6 7 3 4 1024.6 1024.5 0.0
29/06:30pm 16.1 15.0 10.6 70 2.9 NW 7 9 4 5 1024.5 1024.4 0.0
29/06:00pm 16.3 14.9 10.8 70 2.9 NNW 9 11 5 6 1024.4 1024.3 0.0
29/05:30pm 16.6 15.1 10.7 68 3.1 NW 9 11 5 6 1024.3 1024.2 0.0
29/05:00pm 16.8 15.3 10.6 67 3.3 W 9 13 5 7 1024.2 1024.1 0.0
29/04:30pm 17.0 14.7 10.6 66 3.4 W 13 15 7 8 1024.3 1024.2 0.0
29/04:00pm 17.2 14.9 10.6 65 3.5 W 13 19 7 10 1024.3 1024.2 0.0
29/03:30pm 17.4 15.2 10.8 65 3.5 WNW 13 20 7 11 1024.1 1024.0 0.0
29/03:00pm 17.8 15.1 10.4 62 3.9 W 15 20 8 11 1024.3 1024.2 0.0
29/02:30pm 18.2 15.3 9.8 58 4.4 W 15 20 8 11 1024.3 1024.2 0.0
29/02:00pm 18.1 15.5 10.7 62 4.0 W 15 20 8 11 1024.2 1024.1 0.0
29/01:30pm 18.1 15.7 10.0 59 4.3 W 13 19 7 10 1024.4 1024.3 0.0
29/01:00pm 17.9 15.2 10.3 61 4.1 W 15 20 8 11 1024.8 1024.7 0.0
29/12:30pm 18.1 16.1 10.0 59 4.3 W 11 15 6 8 1025.2 1025.1 0.0
29/12:00pm 18.0 16.2 9.4 57 4.5 WSW 9 15 5 8 1025.7 1025.6 0.0
29/11:30am 17.7 15.9 9.3 58 4.4 WSW 9 13 5 7 1026.2 1026.1 0.0
29/11:00am 17.7 15.5 9.3 58 4.4 W 11 15 6 8 1026.3 1026.2 0.0
29/10:30am 17.3 15.0 9.0 58 4.3 W 11 17 6 9 1026.4 1026.3 0.0
29/10:00am 17.0 14.4 9.4 61 4.0 W 13 19 7 10 1026.5 1026.4 0.0
29/09:30am 16.7 14.8 9.1 61 3.9 WSW 9 15 5 8 1026.5 1026.4 0.0
29/09:00am 16.2 13.4 8.7 61 3.8 W 13 19 7 10 1026.4 1026.3 0.0
29/08:30am 15.8 13.0 8.5 62 3.7 WNW 13 17 7 9 1026.3 1026.2 0.0
29/08:00am 15.4 12.6 8.4 63 3.5 W 13 17 7 9 1026.1 1026.0 0.0
29/07:30am 14.8 12.3 8.3 65 3.3 WNW 11 13 6 7 1025.8 1025.7 0.0
29/07:00am 14.2 12.1 8.4 68 2.9 NNW 9 11 5 6 1025.6 1025.5 0.0
29/06:30am 14.1 11.6 8.3 68 2.9 NNW 11 13 6 7 1025.4 1025.3 0.0
29/06:00am 14.5 11.6 8.0 65 3.2 WNW 13 19 7 10 1025.3 1025.2 0.0
29/05:30am 14.3 11.9 8.5 68 2.9 WNW 11 13 6 7 1025.2 1025.1 0.0
29/05:00am 14.4 11.6 8.6 68 2.9 W 13 19 7 10 1025.1 1025.0 0.0
29/04:30am 14.2 12.3 9.2 72 2.5 W 9 15 5 8 1025.1 1025.0 0.0
29/04:00am 14.2 12.4 9.6 74 2.4 WNW 9 13 5 7 1025.0 1024.9 0.0
29/03:30am 14.1 12.7 9.5 74 2.4 WNW 7 9 4 5 1025.1 1025.0 0.0
29/03:00am 14.2 12.4 9.6 74 2.4 WNW 9 11 5 6 1025.2 1025.1 0.0
29/02:30am 14.4 12.2 9.4 72 2.6 WNW 11 13 6 7 1025.4 1025.3 0.0
29/02:00am 14.4 12.6 9.6 73 2.5 WNW 9 11 5 6 1025.4 1025.3 0.0
29/01:30am 14.4 12.7 9.8 74 2.4 W 9 11 5 6 1025.6 1025.5 0.0
29/01:00am 14.3 13.0 10.1 76 2.2 W 7 9 4 5 1025.6 1025.5 0.0
29/12:30am 14.4 12.7 10.0 75 2.3 WNW 9 13 5 7 1025.8 1025.7 0.0
29/12:00am 14.5 12.9 10.1 75 2.3 WSW 9 13 5 7 1026.0 1025.9 0.0
 
Date/Time
CST
Temp
°C
App
Temp
°C
Dew
Point
°C
Rel
Hum
%
Delta-T
°C
Wind Press
QNH
hPa
Press
MSL
hPa
Rain since
9am
mm
Dir  Spd
km/h
Gust
km/h
Spd
kts
Gust
kts
28/11:30pm 14.6 12.9 10.0 74 2.4 SW 9 11 5 6 1026.2 1026.1 0.0
28/11:00pm 14.6 13.1 10.4 76 2.2 WNW 9 13 5 7 1026.3 1026.2 0.0
28/10:30pm 14.5 12.9 10.3 76 2.2 WNW 9 11 5 6 1026.5 1026.4 0.0
28/10:00pm 14.5 13.5 10.3 76 2.2 W 6 7 3 4 1026.6 1026.5 0.0
28/09:30pm 14.5 13.6 10.5 77 2.1 W 6 7 3 4 1026.7 1026.6 0.0
28/09:00pm 14.6 13.6 10.2 75 2.3 WNW 6 9 3 5 1026.6 1026.5 0.0
28/08:30pm 14.5 12.9 10.3 76 2.2 NW 9 11 5 6 1026.6 1026.5 0.0
28/08:00pm 14.5 13.0 10.5 77 2.1 W 9 11 5 6 1026.6 1026.5 0.0
28/07:30pm 14.9 13.5 10.9 77 2.1 SW 9 11 5 6 1026.7 1026.6 0.0
28/07:00pm 15.3 13.1 10.7 74 2.4 SSW 13 15 7 8 1026.6 1026.5 0.0
28/06:30pm 15.7 13.4 10.5 71 2.7 SW 13 19 7 10 1026.6 1026.5 0.0
28/06:00pm 15.8 13.8 8.8 63 3.6 SSW 9 15 5 8 1026.2 1026.1 0.0
28/05:30pm 16.4 14.8 7.9 57 4.3 WSW 6 7 3 4 1026.1 1026.0 0.0
28/05:00pm 16.9 14.2 7.5 54 4.7 WSW 11 15 6 8 1026.0 1025.9 0.0
28/04:30pm 17.0 13.7 7.9 55 4.6 W 15 20 8 11 1025.9 1025.8 0.0
28/04:00pm 16.7 13.0 7.9 56 4.5 W 17 22 9 12 1026.0 1025.9 0.0
28/03:30pm 17.2 11.6 7.3 52 4.9 W 26 35 14 19 1026.0 1025.9 0.0
28/03:00pm 18.1 13.7 7.5 50 5.3 W 20 33 11 18 1026.0 1025.9 0.0
28/02:30pm 17.9 13.0 8.5 54 4.8 W 24 30 13 16 1026.1 1026.0 0.0
28/02:00pm 18.3 14.3 9.1 55 4.8 W 20 30 11 16 1026.2 1026.1 0.0
28/01:30pm 17.9 14.1 9.8 59 4.3 WSW 20 32 11 17 1026.4 1026.3 0.0
28/01:00pm 18.5 15.4 10.3 59 4.4 W 17 24 9 13 1026.5 1026.4 0.0
28/12:30pm 18.4 15.9 11.0 62 4.0 W 15 20 8 11 1026.8 1026.7 0.0
28/12:00pm 18.9 16.4 9.7 55 4.9 SSW 13 20 7 11 1027.1 1027.0 0.0
28/11:30am 19.0 16.4 9.2 53 5.1 WSW 13 22 7 12 1027.5 1027.4 0.0
28/11:00am 18.6 15.3 8.0 50 5.4 W 15 22 8 12 1027.8 1027.7 0.0
28/10:30am 18.3 14.9 10.4 60 4.2 WSW 19 28 10 15 1027.7 1027.6 0.0
28/10:00am 17.7 14.6 10.3 62 4.0 WSW 17 24 9 13 1027.8 1027.7 0.0
28/09:30am 16.3 13.3 10.6 69 3.0 WSW 17 24 9 13 1028.1 1028.0 0.0
28/09:00am 16.0 13.1 11.0 72 2.7 WSW 17 24 9 13 1028.0 1027.9 0.0
28/08:30am 15.3 14.0 11.3 77 2.1 SSW 9 11 5 6 1027.8 1027.7 0.0
28/08:00am 14.7 13.0 11.1 79 1.9 S 11 13 6 7 1027.5 1027.4 0.0
28/07:30am 14.3 12.7 10.3 77 2.1 SW 9 11 5 6 1027.2 1027.1 0.0
28/07:00am 14.4 11.6 10.0 75 2.3 WSW 15 19 8 10 1026.9 1026.8 0.0
28/06:30am 14.4 12.0 10.0 75 2.3 WSW 13 22 7 12 1026.8 1026.7 0.0
28/06:00am 14.3 11.2 10.3 77 2.1 W 17 20 9 11 1026.6 1026.5 0.0
28/05:30am 14.2 11.8 10.0 76 2.2 WNW 13 17 7 9 1026.4 1026.3 0.0
28/05:00am 14.2 10.5 10.2 77 2.1 W 20 26 11 14 1026.2 1026.1 0.0
28/04:30am 14.3 11.4 9.7 74 2.4 W 15 20 8 11 1026.1 1026.0 0.0
28/04:00am 14.2 11.2 9.4 73 2.5 W 15 20 8 11 1025.9 1025.8 0.0
28/03:30am 13.9 11.0 9.5 75 2.2 W 15 20 8 11 1025.8 1025.7 0.0
28/03:00am 13.3 10.4 9.7 79 1.8 WNW 15 20 8 11 1025.9 1025.8 0.0
28/02:30am 12.9 10.1 9.9 82 1.5 WNW 15 19 8 10 1026.2 1026.1 0.0
28/02:00am 12.4 9.5 9.6 83 1.4 WNW 15 19 8 10 1026.4 1026.3 0.0
28/01:30am 12.7 9.6 10.2 85 1.3 NW 17 20 9 11 1026.5 1026.4 0.0
28/01:00am 12.7 10.2 10.9 89 0.9 WNW 15 20 8 11 1026.9 1026.8 0.0
28/12:30am 12.9 10.3 10.6 86 1.2 W 15 19 8 10 1027.1 1027.0 0.0
28/12:00am 13.1 10.4 10.3 83 1.4 SW 15 20 8 11 1027.4 1027.3 0.0
 
Date/Time
CST
Temp
°C
App
Temp
°C
Dew
Point
°C
Rel
Hum
%
Delta-T
°C
Wind Press
QNH
hPa
Press
MSL
hPa
Rain since
9am
mm
Dir  Spd
km/h
Gust
km/h
Spd
kts
Gust
kts
27/11:30pm 12.7 10.7 10.2 85 1.3 NW 11 15 6 8 1027.2 1027.1 0.0
27/11:00pm 12.3 12.0 10.2 87 1.1 SW 2 7 1 4 1027.4 1027.3 0.0
27/10:30pm 12.3 12.4 10.0 86 1.2 CALM 0 0 0 0 1027.4 1027.3 0.0
27/10:00pm 12.4 12.5 10.1 86 1.2 CALM 0 0 0 0 1027.4 1027.3 0.0
27/09:30pm 12.3 11.5 9.7 84 1.3 E 4 6 2 3 1027.3 1027.2 0.0
27/09:00pm 12.5 12.5 9.7 83 1.4 CALM 0 0 0 0 1027.4 1027.3 0.0
27/08:30pm 12.6 11.2 9.4 81 1.6 S 7 13 4 7 1027.3 1027.2 0.0
27/08:00pm 12.1 11.6 9.5 84 1.3 NNE 2 6 1 3 1027.2 1027.1 0.0
27/07:30pm 12.0 10.1 9.0 82 1.5 WNW 9 11 5 6 1027.1 1027.0 0.0
27/07:00pm 12.3 10.7 8.6 78 1.8 WNW 7 9 4 5 1027.1 1027.0 0.0
27/06:30pm 12.4 10.5 8.9 79 1.7 WNW 9 13 5 7 1026.9 1026.8 0.0
27/06:00pm 12.4 10.4 8.5 77 1.9 WNW 9 13 5 7 1026.7 1026.6 0.0
27/05:30pm 13.8 11.3 8.4 70 2.7 WSW 11 15 6 8 1026.6 1026.5 0.0
27/05:00pm 14.9 10.5 8.8 67 3.1 SSW 22 30 12 16 1026.5 1026.4 0.0
27/04:30pm 15.4 12.0 9.1 66 3.2 SSW 17 26 9 14 1026.4 1026.3 0.0
27/04:00pm 14.7 10.7 8.9 68 3.0 SSW 20 28 11 15 1026.4 1026.3 0.0
27/03:30pm 15.7 11.4 7.7 59 4.0 SW 20 28 11 15 1026.4 1026.3 0.0
27/03:00pm 15.6 11.9 7.9 60 3.8 WSW 17 24 9 13 1026.3 1026.2 0.0

Other Formats:

Comma delimited format used in spreadsheet applications
http://www.bom.gov.au/fwo/IDS60801/IDS60801.94814.axf

JavaScript Object Notation format (JSON) in row-major order
http://www.bom.gov.au/fwo/IDS60801/IDS60801.94814.json